createdAt,value
2019-03-05T00:01:37.184Z,30.02
2019-03-05T00:06:43.389Z,32.98
2019-03-05T00:11:49.601Z,30.23
2019-03-05T00:16:55.815Z,36.15
2019-03-05T00:22:01.942Z,29.98
2019-03-05T00:27:08.239Z,29.37
2019-03-05T00:32:14.347Z,34.92
2019-03-05T00:37:32.952Z,37.40
2019-03-05T00:43:01.577Z,28.38
2019-03-05T00:48:33.547Z,33.15
2019-03-05T00:53:57.852Z,30.73
2019-03-05T00:59:19.540Z,26.82
2019-03-05T01:04:51.740Z,28.52
2019-03-05T01:09:57.615Z,31.80
2019-03-05T01:15:04.602Z,32.23
2019-03-05T01:20:11.351Z,35.88
2019-03-05T01:25:30.306Z,31.20
2019-03-05T01:30:50.960Z,24.45
2019-03-05T01:36:04.775Z,24.30
2019-03-05T01:41:12.208Z,23.87
2019-03-05T01:46:18.241Z,32.25
2019-03-05T01:51:24.339Z,33.60
2019-03-05T01:56:30.562Z,26.27
2019-03-05T02:01:36.943Z,24.63
2019-03-05T02:06:43.283Z,30.48
2019-03-05T02:11:49.492Z,20.72
2019-03-05T02:16:55.738Z,34.23
2019-03-05T02:22:02.042Z,23.70
2019-03-05T02:27:57.010Z,25.72
2019-03-05T02:33:29.588Z,29.00
2019-03-05T02:39:00.046Z,36.08
2019-03-05T02:44:42.876Z,28.25
2019-03-05T02:50:26.506Z,29.05
2019-03-05T02:55:58.695Z,30.17
2019-03-05T03:01:24.802Z,29.82
2019-03-05T03:06:33.480Z,30.08
2019-03-05T03:11:39.668Z,34.20
2019-03-05T03:16:45.914Z,38.78
2019-03-05T03:21:52.292Z,29.07
2019-03-05T03:26:59.051Z,32.05
2019-03-05T03:32:05.195Z,25.20
2019-03-05T03:37:11.617Z,30.08
2019-03-05T03:42:17.852Z,24.37
2019-03-05T03:47:23.930Z,34.18
2019-03-05T03:52:30.068Z,28.40
2019-03-05T03:57:36.277Z,32.30
2019-03-05T04:02:42.578Z,35.80
2019-03-05T04:07:48.818Z,31.57
2019-03-05T04:12:55.160Z,23.52
2019-03-05T04:18:02.096Z,35.00
2019-03-05T04:23:08.292Z,42.10
2019-03-05T04:28:14.367Z,36.90
2019-03-05T04:33:20.543Z,30.10
2019-03-05T04:38:26.613Z,28.62
2019-03-05T04:43:32.938Z,30.75
2019-03-05T04:48:39.641Z,25.75
2019-03-05T04:53:45.826Z,40.10
2019-03-05T04:58:52.271Z,31.60
2019-03-05T05:03:58.287Z,30.62
2019-03-05T05:09:05.041Z,36.42
2019-03-05T05:14:11.506Z,34.53
2019-03-05T05:19:17.785Z,33.13
2019-03-05T05:24:23.925Z,42.27
2019-03-05T05:29:30.177Z,33.63
2019-03-05T05:34:36.332Z,33.70
2019-03-05T05:40:18.198Z,37.05
2019-03-05T05:45:25.760Z,26.12
2019-03-05T05:50:31.950Z,33.28
2019-03-05T05:55:38.132Z,33.92
2019-03-05T06:00:46.398Z,23.92
2019-03-05T06:05:52.335Z,20.05
2019-03-05T06:10:58.705Z,38.23
2019-03-05T06:16:04.829Z,28.77
2019-03-05T06:21:10.958Z,31.75
2019-03-05T06:26:17.168Z,36.05
2019-03-05T06:31:23.459Z,31.10
2019-03-05T06:36:44.403Z,32.00
2019-03-05T06:41:50.758Z,31.52
2019-03-05T06:46:56.887Z,30.00
2019-03-05T06:52:03.138Z,31.68
2019-03-05T06:57:09.594Z,21.80
2019-03-05T07:02:15.621Z,32.58
2019-03-05T07:07:21.896Z,30.62
2019-03-05T07:13:14.546Z,33.88
2019-03-05T07:18:24.044Z,36.40
2019-03-05T07:24:06.693Z,64.72
2019-03-05T07:29:13.192Z,40.17
2019-03-05T07:34:25.510Z,42.30
2019-03-05T07:39:31.875Z,33.08
2019-03-05T07:44:38.171Z,44.00
2019-03-05T07:49:44.850Z,52.53
2019-03-05T07:54:52.485Z,33.20
2019-03-05T07:59:58.887Z,40.58
2019-03-05T08:05:05.294Z,31.05
2019-03-05T08:10:31.358Z,32.13
2019-03-05T08:16:40.728Z,31.48
2019-03-05T08:21:47.161Z,41.67
2019-03-05T08:26:53.365Z,30.65
2019-03-05T08:31:59.584Z,36.45
2019-03-05T08:37:05.890Z,39.73
2019-03-05T08:42:12.218Z,35.68
2019-03-05T08:47:18.697Z,40.80
2019-03-05T08:52:24.852Z,39.15
2019-03-05T08:57:31.067Z,38.85
2019-03-05T09:02:47.740Z,43.30
2019-03-05T09:07:45.603Z,52.48
2019-03-05T09:12:51.921Z,38.75
2019-03-05T09:17:58.198Z,61.90
2019-03-05T09:23:04.699Z,65.62
2019-03-05T09:28:10.756Z,66.40
2019-03-05T09:33:19.188Z,64.90
2019-03-05T09:38:24.568Z,52.58
2019-03-05T09:43:30.819Z,52.53
2019-03-05T09:48:37.072Z,46.33
2019-03-05T09:53:43.160Z,49.10
2019-03-05T09:58:49.555Z,37.33
2019-03-05T10:03:55.747Z,34.58
2019-03-05T10:09:01.930Z,42.23
2019-03-05T10:14:08.197Z,33.20
2019-03-05T10:19:14.495Z,32.78
2019-03-05T10:24:20.697Z,26.17
2019-03-05T10:29:26.801Z,23.05
2019-03-05T10:34:33.020Z,23.73
2019-03-05T10:39:39.199Z,25.90
2019-03-05T10:44:45.261Z,26.73
2019-03-05T10:49:51.906Z,21.75
2019-03-05T10:54:58.227Z,18.23
2019-03-05T11:00:06.406Z,18.45
2019-03-05T11:05:12.930Z,22.00
2019-03-05T11:10:20.179Z,15.80
2019-03-05T11:15:27.377Z,17.25
2019-03-05T11:20:35.113Z,16.97
2019-03-05T11:25:41.612Z,12.70
2019-03-05T11:30:47.797Z,17.07
2019-03-05T11:35:54.034Z,13.22
2019-03-05T11:41:00.278Z,11.85
2019-03-05T11:46:11.123Z,11.93
2019-03-05T11:51:17.189Z,12.60
2019-03-05T11:56:23.301Z,12.90
2019-03-05T12:01:38.402Z,9.43
2019-03-05T12:06:44.611Z,13.25
2019-03-05T12:11:50.693Z,12.03
2019-03-05T12:16:56.847Z,13.50
2019-03-05T12:22:03.034Z,8.35
2019-03-05T12:27:09.273Z,11.53
2019-03-05T12:32:15.473Z,8.50
2019-03-05T12:37:21.605Z,8.55
2019-03-05T12:42:27.869Z,10.45
2019-03-05T12:47:34.306Z,6.90
2019-03-05T12:52:40.683Z,10.38
2019-03-05T12:57:47.080Z,9.63
2019-03-05T13:02:53.357Z,9.25
2019-03-05T13:07:59.678Z,6.87
2019-03-05T13:13:05.861Z,10.38
2019-03-05T13:18:14.298Z,7.03
2019-03-05T13:23:20.324Z,9.30
2019-03-05T13:28:26.317Z,9.58
2019-03-05T13:33:33.586Z,13.58
2019-03-05T13:38:41.808Z,7.20
2019-03-05T13:43:52.062Z,10.05
2019-03-05T13:49:18.051Z,11.22
2019-03-05T13:54:56.337Z,11.40
2019-03-05T14:00:02.364Z,12.93
2019-03-05T14:05:37.058Z,12.05
2019-03-05T14:10:43.399Z,12.13
2019-03-05T14:15:49.481Z,17.17
2019-03-05T14:20:55.576Z,13.70
2019-03-05T14:26:01.712Z,13.25
2019-03-05T14:31:07.751Z,12.45
2019-03-05T14:36:14.038Z,14.83
2019-03-05T14:41:20.359Z,11.83
2019-03-05T14:46:26.648Z,10.95
2019-03-05T14:51:32.777Z,9.33
2019-03-05T14:56:39.439Z,12.13
2019-03-05T15:01:45.449Z,8.90
2019-03-05T15:06:51.726Z,12.43
2019-03-05T15:11:59.390Z,8.43
2019-03-05T15:17:05.798Z,11.00
2019-03-05T15:22:11.806Z,12.60
2019-03-05T15:27:17.884Z,8.28
2019-03-05T15:32:24.022Z,15.58
2019-03-05T15:37:30.224Z,6.40
2019-03-05T15:42:36.399Z,11.88
2019-03-05T15:47:42.846Z,10.13
2019-03-05T15:52:49.246Z,9.50
2019-03-05T15:57:55.508Z,7.47
2019-03-05T16:03:03.435Z,9.48
2019-03-05T16:08:09.557Z,9.35
2019-03-05T16:13:19.402Z,11.78
2019-03-05T16:18:23.553Z,14.93
2019-03-05T16:23:29.944Z,9.95
2019-03-05T16:28:39.343Z,11.15
2019-03-05T16:34:09.506Z,9.85
2019-03-05T16:39:35.689Z,10.78
2019-03-05T16:44:59.432Z,11.90
2019-03-05T16:50:25.904Z,11.73
2019-03-05T16:55:50.111Z,10.58
2019-03-05T17:01:30.300Z,8.85
2019-03-05T17:06:45.999Z,9.83
2019-03-05T17:11:57.185Z,7.67
2019-03-05T17:17:03.135Z,11.00
2019-03-05T17:22:09.216Z,10.95
2019-03-05T17:27:15.746Z,17.15
2019-03-05T17:32:22.327Z,16.37
2019-03-05T17:37:28.631Z,10.72
2019-03-05T17:42:34.828Z,15.10
2019-03-05T17:47:40.900Z,11.63
2019-03-05T17:52:47.460Z,14.20
2019-03-05T17:57:53.859Z,29.92
2019-03-05T18:03:00.557Z,32.88
2019-03-05T18:08:06.758Z,19.75
2019-03-05T18:13:13.049Z,26.75
2019-03-05T18:18:19.060Z,21.50
2019-03-05T18:23:25.168Z,15.00
2019-03-05T18:28:31.804Z,17.50
2019-03-05T18:33:38.170Z,13.00
2019-03-05T18:38:44.669Z,13.30
2019-03-05T18:43:50.844Z,14.15
2019-03-05T18:48:56.852Z,12.13
2019-03-05T18:54:02.936Z,11.48
2019-03-05T18:59:09.100Z,9.03
2019-03-05T19:04:15.208Z,13.98
2019-03-05T19:09:22.997Z,11.97
2019-03-05T19:14:29.338Z,14.28
2019-03-05T19:19:35.472Z,16.10
2019-03-05T19:24:42.009Z,12.50
2019-03-05T19:29:48.099Z,14.47
2019-03-05T19:34:54.365Z,16.90
2019-03-05T19:40:00.630Z,11.08
2019-03-05T19:45:07.138Z,9.43
2019-03-05T19:50:15.014Z,10.80
2019-03-05T19:55:21.337Z,10.75
2019-03-05T20:00:36.130Z,8.73
2019-03-05T20:05:42.491Z,8.30
2019-03-05T20:10:48.761Z,10.15
2019-03-05T20:15:55.459Z,8.93
2019-03-05T20:21:01.570Z,11.40
2019-03-05T20:26:07.789Z,8.35
2019-03-05T20:31:14.169Z,9.93
2019-03-05T20:36:20.306Z,12.33
2019-03-05T20:41:26.664Z,14.05
2019-03-05T20:46:32.997Z,9.40
2019-03-05T20:51:39.205Z,7.22
2019-03-05T20:56:45.755Z,7.53
2019-03-05T21:01:51.664Z,9.63
2019-03-05T21:06:57.858Z,11.48
2019-03-05T21:12:04.543Z,9.93
2019-03-05T21:17:10.614Z,9.15
2019-03-05T21:22:16.659Z,8.08
2019-03-05T21:27:22.830Z,8.23
2019-03-05T21:32:29.606Z,11.53
2019-03-05T21:37:36.305Z,9.75
2019-03-05T21:42:42.569Z,9.45
2019-03-05T21:47:48.782Z,10.48
2019-03-05T21:52:55.705Z,8.23
2019-03-05T21:58:01.919Z,9.78
2019-03-05T22:03:08.175Z,8.43
2019-03-05T22:08:14.460Z,8.78
2019-03-05T22:13:20.861Z,9.50
2019-03-05T22:18:26.926Z,9.20
2019-03-05T22:23:33.257Z,8.60
2019-03-05T22:28:39.635Z,7.15
2019-03-05T22:33:45.564Z,11.60
2019-03-05T22:38:51.733Z,7.97
2019-03-05T22:43:58.229Z,11.25
2019-03-05T22:49:04.472Z,10.55
2019-03-05T22:54:10.644Z,7.30
2019-03-05T22:59:17.600Z,9.33
2019-03-05T23:04:33.221Z,9.88
2019-03-05T23:09:39.459Z,7.17
2019-03-05T23:14:45.933Z,12.75
2019-03-05T23:19:52.249Z,8.43
2019-03-05T23:24:58.517Z,7.10
2019-03-05T23:30:07.431Z,12.07
2019-03-05T23:35:13.973Z,13.88
2019-03-05T23:40:20.386Z,20.37
2019-03-05T23:45:26.409Z,8.40
2019-03-05T23:50:32.467Z,9.58
2019-03-05T23:55:38.629Z,12.55
